Time;durP1;ratioP1;P1;durP2;ratioP2;P2;SDS_P1;SDS_P2;PMS_P1;PMS_P2;Temp;Humidity;BMP_temperature;BMP_pressure;BME280_temperature;BME280_humidity;BME280_pressure;Samples;Min_cycle;Max_cycle;Signal;HPM_P1;HPM_P2
2023/01/10 00:00:25;;;;;;;3.90;3.70;;;;;;;5.32;100.00;100766.13;6107261;23;20006;-75
2023/01/10 00:02:52;;;;;;;3.80;3.60;;;;;;;5.08;100.00;100743.44;6143004;23;20024;-75
2023/01/10 00:05:19;;;;;;;3.60;3.40;;;;;;;4.72;100.00;100704.56;6115486;23;20444;-77
2023/01/10 00:07:45;;;;;;;3.55;3.35;;;;;;;5.17;100.00;100792.59;6137506;23;20033;-75
2023/01/10 00:10:12;;;;;;;5.80;3.80;;;;;;;5.10;100.00;100799.72;6115803;23;20033;-76
2023/01/10 00:15:24;;;;;;;3.63;3.42;;;;;;;3.80;100.00;100591.00;6113534;23;20037;-76
2023/01/10 00:17:51;;;;;;;4.32;4.05;;;;;;;5.21;100.00;100835.84;6110209;23;20652;-76
2023/01/10 00:20:17;;;;;;;5.75;4.32;;;;;;;5.16;100.00;100835.97;6109173;23;20034;-76
2023/01/10 00:22:44;;;;;;;4.10;3.80;;;;;;;4.83;100.00;100787.47;6128734;23;20494;-75
2023/01/10 00:25:11;;;;;;;4.82;4.63;;;;;;;4.51;100.00;100737.19;6083637;23;20028;-74
2023/01/10 00:27:38;;;;;;;3.60;3.40;;;;;;;5.00;100.00;100824.28;6139845;23;20021;-75
2023/01/10 00:30:14;;;;;;;3.63;3.40;;;;;;;4.80;100.00;100811.81;6086900;23;20093;-76
2023/01/10 00:32:41;;;;;;;3.88;3.60;;;;;;;4.77;100.00;100791.97;6133880;23;20250;-76
2023/01/10 00:35:11;;;;;;;4.00;3.70;;;;;;;5.06;100.00;100850.13;6078990;23;20041;-74
2023/01/10 00:37:39;;;;;;;3.67;3.47;;;;;;;4.67;100.00;100793.09;6113113;23;20162;-76
2023/01/10 00:40:09;;;;;;;3.60;3.40;;;;;;;5.09;100.00;100864.78;6086029;23;20082;-74
2023/01/10 00:45:23;;;;;;;3.33;3.22;;;;;;;5.28;100.00;100906.78;6111937;23;20199;-74
2023/01/10 00:47:50;;;;;;;3.90;3.70;;;;;;;5.27;100.00;100908.53;6109386;23;20026;-78
2023/01/10 00:50:17;;;;;;;3.88;3.75;;;;;;;5.11;100.00;100889.88;6129585;23;20041;-76
2023/01/10 00:52:43;;;;;;;7.53;3.70;;;;;;;5.04;100.00;100882.28;6079230;23;20006;-75
2023/01/10 00:55:10;;;;;;;3.85;3.60;;;;;;;5.13;100.00;100911.50;6115836;23;20036;-75
2023/01/10 00:57:36;;;;;;;3.40;3.20;;;;;;;4.07;100.00;100755.63;6111893;23;20075;-74
2023/01/10 01:00:06;;;;;;;4.35;3.70;;;;;;;5.04;100.00;100896.13;6143383;23;20483;-76
2023/01/10 01:02:32;;;;;;;3.30;3.10;;;;;;;5.30;100.00;100941.44;6113672;23;20033;-75
2023/01/10 01:04:59;;;;;;;3.50;3.40;;;;;;;5.13;100.00;100906.31;6138788;23;20636;-76
2023/01/10 01:07:25;;;;;;;4.10;3.90;;;;;;;5.09;100.00;100914.22;6142594;23;20020;-74
2023/01/10 01:12:37;;;;;;;4.13;3.83;;;;;;;5.27;100.00;100951.91;6113799;23;20065;-76
2023/01/10 01:15:04;;;;;;;3.40;3.30;;;;;;;5.10;100.00;100937.59;6138716;23;20427;-75
2023/01/10 01:17:30;;;;;;;3.53;3.33;;;;;;;5.14;100.00;100936.63;6086483;23;20085;-76
2023/01/10 01:19:57;;;;;;;3.83;3.63;;;;;;;5.31;100.00;100977.81;6144654;23;20091;-77
2023/01/10 01:22:23;;;;;;;3.53;3.42;;;;;;;4.62;100.00;100872.09;6146584;23;20024;-75
2023/01/10 01:24:49;;;;;;;5.78;3.72;;;;;;;5.34;100.00;100987.28;6119347;23;20112;-75
2023/01/10 01:27:16;;;;;;;12.57;3.63;;;;;;;5.04;100.00;100952.50;6150363;23;20597;-77
2023/01/10 01:29:42;;;;;;;4.97;4.53;;;;;;;5.33;100.00;100993.38;6089355;23;20029;-76
2023/01/10 01:32:09;;;;;;;10.45;4.20;;;;;;;4.67;100.00;100891.88;6155862;23;20121;-77
2023/01/10 01:34:36;;;;;;;3.25;3.15;;;;;;;5.34;100.00;101008.97;6115606;23;20017;-75
2023/01/10 01:37:02;;;;;;;3.40;3.30;;;;;;;5.18;100.00;100999.84;6134478;23;20033;-75
2023/01/10 01:39:28;;;;;;;3.72;3.53;;;;;;;5.23;100.00;101008.38;6115402;23;20033;-77
2023/01/10 01:41:59;;;;;;;3.88;3.67;;;;;;;5.39;100.00;101045.28;6154292;23;20282;-77
2023/01/10 01:44:31;;;;;;;3.50;3.40;;;;;;;4.77;100.00;100936.69;6116218;23;20785;-75
2023/01/10 01:47:05;;;;;;;3.60;3.40;;;;;;;5.00;100.00;100978.59;6127311;23;20012;-76
2023/01/10 01:49:38;;;;;;;3.72;3.55;;;;;;;5.40;100.00;101044.41;6115719;23;20041;-75
2023/01/10 01:52:21;;;;;;;3.47;3.35;;;;;;;4.65;100.00;100934.38;6157353;23;20016;-78
2023/01/10 01:54:48;;;;;;;3.70;3.42;;;;;;;4.95;100.00;100990.88;6142108;23;20005;-77
2023/01/10 01:57:19;;;;;;;3.22;3.13;;;;;;;4.79;100.00;100971.28;6156020;23;20139;-77
2023/01/10 01:59:48;;;;;;;3.75;3.58;;;;;;;4.85;100.00;100962.50;6114919;23;20448;-77
2023/01/10 02:02:22;;;;;;;4.97;4.68;;;;;;;5.04;100.00;100992.38;6146882;23;20024;-77
2023/01/10 02:04:54;;;;;;;4.13;3.72;;;;;;;5.09;100.00;101015.66;6112741;23;20010;-76
2023/01/10 02:07:23;;;;;;;3.58;3.28;;;;;;;5.33;100.00;101063.66;6151744;23;20050;-76
2023/01/10 02:10:04;;;;;;;3.38;3.28;;;;;;;3.66;100.00;100803.31;6115785;23;20005;-75
2023/01/10 02:12:31;;;;;;;3.97;3.78;;;;;;;5.03;100.00;101047.88;6144654;23;20549;-75
2023/01/10 02:14:59;;;;;;;3.40;3.30;;;;;;;5.08;100.00;101087.66;6143468;23;20017;-75
2023/01/10 02:17:25;;;;;;;3.83;3.63;;;;;;;4.99;100.00;101060.13;6116674;23;20075;-76
2023/01/10 02:20:00;;;;;;;3.70;3.50;;;;;;;4.60;100.00;101002.06;6108571;23;20264;-76
2023/01/10 02:22:41;;;;;;;4.20;3.92;;;;;;;4.99;100.00;101072.25;6119269;23;20028;-76
2023/01/10 02:25:37;;;;;;;3.80;3.50;;;;;;;4.94;100.00;101077.56;6109411;23;20265;-75
2023/01/10 02:28:19;;;;;;;6.07;4.22;;;;;;;4.93;100.00;101082.78;6141796;23;20033;-75
2023/01/10 02:31:23;;;;;;;3.70;3.50;;;;;;;4.96;100.00;101082.75;6113256;23;20216;-77
2023/01/10 02:34:07;;;;;;;3.78;3.58;;;;;;;4.93;100.00;101082.78;6144557;23;20028;-76
2023/01/10 02:37:02;;;;;;;5.28;4.95;;;;;;;4.91;100.00;101075.06;6131654;23;20072;-76
2023/01/10 02:40:10;;;;;;;4.15;3.95;;;;;;;4.89;100.00;101081.16;6145721;23;20191;-77
2023/01/10 02:42:57;;;;;;;3.38;3.28;;;;;;;4.66;100.00;101040.94;6116205;23;20024;-77
2023/01/10 02:45:29;;;;;;;3.30;3.20;;;;;;;4.94;100.00;101087.97;6112943;23;20312;-75
2023/01/10 02:47:56;;;;;;;;;;;;;;;4.90;100.00;101078.53;6157032;23;20021;-78
2023/01/10 02:50:44;;;;;;;3.53;3.42;;;;;;;4.89;100.00;101070.75;6116212;23;19913;-76
2023/01/10 02:53:14;;;;;;;4.00;3.78;;;;;;;4.86;100.00;101065.63;6144746;23;20025;-74
2023/01/10 02:55:53;;;;;;;3.35;3.20;;;;;;;4.34;100.00;100993.09;6087971;23;20021;-74
2023/01/10 02:58:44;;;;;;;11.43;4.35;;;;;;;4.67;100.00;101063.44;6142158;23;20604;-76
2023/01/10 03:01:37;;;;;;;4.35;3.22;;;;;;;4.50;100.00;101065.53;6103973;23;20027;-77
2023/01/10 03:04:45;;;;;;;7.82;3.30;;;;;;;4.48;100.00;101075.97;6136499;23;20092;-75
2023/01/10 03:07:33;;;;;;;3.45;3.25;;;;;;;4.05;100.00;101000.66;6117017;23;20271;-75
2023/01/10 03:10:11;;;;;;;3.65;3.35;;;;;;;4.49;100.00;101082.00;6112308;23;20005;-75
2023/01/10 03:12:48;;;;;;;3.72;3.53;;;;;;;4.38;100.00;101088.28;6116170;23;20084;-77
2023/01/10 03:15:18;;;;;;;3.47;3.30;;;;;;;4.35;100.00;101087.50;6135727;23;20044;-77
2023/01/10 03:17:49;;;;;;;3.20;3.10;;;;;;;3.74;100.00;100986.53;6120539;23;20084;-78
2023/01/10 03:20:19;;;;;;;3.70;3.50;;;;;;;4.40;100.00;101096.06;6139867;23;20013;-75
2023/01/10 03:22:46;;;;;;;4.13;3.92;;;;;;;4.32;100.00;101105.75;6146288;23;20084;-75
2023/01/10 03:25:16;;;;;;;3.92;3.58;;;;;;;3.86;100.00;101045.16;6122831;23;20028;-78
2023/01/10 03:27:59;;;;;;;3.60;3.40;;;;;;;4.25;100.00;101093.75;6091335;23;20558;-75
2023/01/10 03:30:44;;;;;;;3.20;3.10;;;;;;;4.25;100.00;101096.34;6131037;23;20023;-75
2023/01/10 03:33:12;;;;;;;8.00;4.53;;;;;;;4.31;100.00;101093.63;6128929;23;20551;-75
2023/01/10 03:35:45;;;;;;;3.10;3.00;;;;;;;4.19;100.00;101087.81;6120355;23;20013;-76
2023/01/10 03:38:37;;;;;;;14.05;3.78;;;;;;;3.74;100.00;101037.59;6115516;23;20025;-76
2023/01/10 03:41:32;;;;;;;3.15;3.05;;;;;;;3.94;100.00;101084.81;6111092;23;20036;-75
2023/01/10 03:47:06;;;;;;;;;;;;;;;4.13;100.00;101110.44;6122931;23;20032;-77
2023/01/10 03:49:36;;;;;;;3.38;3.28;;;;;;;3.53;100.00;101065.66;6112737;23;20320;-74
2023/01/10 03:52:05;;;;;;;6.25;3.85;;;;;;;3.89;100.00;101111.75;6132534;23;20025;-75
2023/01/10 03:54:32;;;;;;;3.28;3.08;;;;;;;3.85;100.00;101115.28;6115172;23;20484;-76
2023/01/10 03:56:58;;;;;;;4.05;3.75;;;;;;;3.40;100.00;101043.38;6138666;23;20193;-76
2023/01/10 03:59:29;;;;;;;3.60;3.40;;;;;;;3.48;100.00;101084.78;6091139;23;20088;-77
2023/01/10 04:01:55;;;;;;;3.53;3.33;;;;;;;3.45;100.00;101071.84;6134433;23;20029;-76
2023/01/10 04:04:22;;;;;;;3.90;3.70;;;;;;;3.22;100.00;101044.53;6113188;23;20018;-76
2023/01/10 04:06:49;;;;;;;3.35;3.25;;;;;;;3.53;100.00;101083.81;6146591;23;20021;-77
2023/01/10 04:09:17;;;;;;;3.38;3.17;;;;;;;3.38;100.00;101053.78;6089269;23;20549;-75
2023/01/10 04:11:44;;;;;;;3.22;3.13;;;;;;;3.98;100.00;101158.31;6137453;23;20082;-77
2023/01/10 04:14:10;;;;;;;3.38;3.28;;;;;;;4.01;100.00;101158.28;6113061;23;20009;-74
2023/01/10 04:16:37;;;;;;;3.60;3.40;;;;;;;3.92;100.00;101119.50;6144373;23;20021;-78
2023/01/10 04:19:03;;;;;;;4.25;4.05;;;;;;;4.09;100.00;101152.94;6093032;23;20319;-75
2023/01/10 04:21:29;;;;;;;4.45;4.15;;;;;;;3.86;100.00;101096.22;6119545;23;20095;-75
2023/01/10 04:23:56;;;;;;;3.50;3.30;;;;;;;3.16;100.00;100975.47;6131826;17;20200;-71
2023/01/10 04:26:22;;;;;;;4.53;4.32;;;;;;;4.44;100.00;101173.06;6095245;23;20037;-70
2023/01/10 04:28:49;;;;;;;4.03;3.83;;;;;;;4.50;100.00;101182.50;6099543;23;20204;-71
2023/01/10 04:31:15;;;;;;;4.60;4.38;;;;;;;4.51;100.00;101184.19;6118644;23;20345;-71
2023/01/10 04:33:42;;;;;;;5.90;4.05;;;;;;;4.50;100.00;101183.34;6097451;23;20447;-71
2023/01/10 04:36:08;;;;;;;3.55;3.35;;;;;;;4.14;100.00;101114.75;6081058;23;20029;-70
2023/01/10 04:38:34;;;;;;;3.47;3.38;;;;;;;4.05;100.00;101102.81;6112790;23;20119;-70
2023/01/10 04:41:01;;;;;;;3.35;3.20;;;;;;;4.08;100.00;101089.75;6096320;23;20014;-70
2023/01/10 04:43:27;;;;;;;3.35;3.17;;;;;;;4.49;100.00;101159.97;6109980;23;20017;-70
2023/01/10 04:45:53;;;;;;;3.17;3.08;;;;;;;4.23;100.00;101125.00;6122118;23;20041;-70
2023/01/10 04:48:20;;;;;;;3.30;3.20;;;;;;;3.87;100.00;101072.84;6089523;23;20025;-70
2023/01/10 04:50:50;;;;;;;15.73;3.25;;;;;;;4.43;100.00;101160.09;6125523;23;20187;-70
2023/01/10 04:53:18;;;;;;;3.78;3.58;;;;;;;4.56;100.00;101169.38;6115172;23;20212;-70
2023/01/10 04:55:45;;;;;;;4.18;3.97;;;;;;;4.55;100.00;101178.94;6098749;23;20524;-69
2023/01/10 04:58:12;;;;;;;4.40;4.10;;;;;;;4.75;100.00;101196.75;6110491;23;20025;-70
2023/01/10 05:00:39;;;;;;;6.38;4.25;;;;;;;4.56;100.00;101197.97;6105368;23;20035;-70
2023/01/10 05:03:06;;;;;;;3.45;3.30;;;;;;;4.79;100.00;101216.59;6092173;23;20302;-70
2023/01/10 05:05:33;;;;;;;3.60;3.40;;;;;;;4.83;100.00;101220.00;6130761;23;20033;-69
2023/01/10 05:07:59;;;;;;;3.50;3.28;;;;;;;4.70;100.00;101197.72;6090138;23;20040;-70
2023/01/10 05:10:26;;;;;;;3.33;3.20;;;;;;;4.79;100.00;101221.78;6105010;23;20032;-70
2023/01/10 05:12:52;;;;;;;5.00;3.15;;;;;;;4.76;100.00;101227.03;6119890;23;20030;-70
2023/01/10 05:15:21;;;;;;;3.30;3.20;;;;;;;4.37;100.00;101176.66;6124582;23;20013;-70
2023/01/10 05:17:47;;;;;;;4.93;4.32;;;;;;;4.66;100.00;101227.25;6095107;23;20432;-70
2023/01/10 05:20:14;;;;;;;3.97;3.72;;;;;;;4.19;100.00;101177.88;6126494;23;20066;-72
2023/01/10 05:22:40;;;;;;;3.40;3.30;;;;;;;4.40;100.00;101221.66;6103869;23;20056;-70
2023/01/10 05:25:07;;;;;;;7.20;4.35;;;;;;;3.56;100.00;101114.88;6125999;23;20021;-71
2023/01/10 05:27:33;;;;;;;4.45;3.45;;;;;;;3.75;100.00;101146.59;6121270;23;20092;-71
2023/01/10 05:30:00;;;;;;;4.97;4.63;;;;;;;3.91;100.00;101188.75;6090379;23;20050;-71
2023/01/10 05:32:28;;;;;;;3.42;3.33;;;;;;;3.53;100.00;101151.28;6089474;23;20021;-71
2023/01/10 05:34:55;;;;;;;3.95;3.72;;;;;;;3.87;100.00;101223.44;6130074;23;20033;-70
2023/01/10 05:37:21;;;;;;;3.67;3.53;;;;;;;3.79;100.00;101227.91;6096468;23;20018;-71
2023/01/10 05:39:48;;;;;;;3.20;3.10;;;;;;;3.64;100.00;101220.34;6130563;23;20021;-71
2023/01/10 05:42:14;;;;;;;4.78;4.35;;;;;;;3.67;100.00;101235.84;6115205;23;20095;-70
2023/01/10 05:44:40;;;;;;;3.60;3.40;;;;;;;3.52;100.00;101217.03;6121336;23;20280;-71
2023/01/10 05:47:07;;;;;;;3.60;3.42;;;;;;;3.12;100.00;101146.72;6090820;23;20337;-71
2023/01/10 05:49:33;;;;;;;5.32;5.03;;;;;;;3.08;100.00;101138.09;6127368;23;20009;-71
2023/01/10 05:52:00;;;;;;;4.13;3.38;;;;;;;2.82;100.00;101099.59;6114336;23;20376;-71
2023/01/10 05:54:28;;;;;;;3.75;3.55;;;;;;;2.82;100.00;101091.81;6124488;23;20642;-73
2023/01/10 05:56:55;;;;;;;3.60;3.50;;;;;;;2.88;100.00;101109.03;6114421;23;20225;-71
2023/01/10 05:59:22;;;;;;;3.80;3.60;;;;;;;2.96;100.00;101146.91;6123220;23;20088;-70
2023/01/10 06:01:56;;;;;;;3.38;3.28;;;;;;;2.92;100.00;101147.84;6096188;23;20103;-71
2023/01/10 06:04:22;;;;;;;3.60;3.40;;;;;;;3.44;100.00;101223.22;6115243;23;20091;-70
2023/01/10 06:06:49;;;;;;;3.72;3.58;;;;;;;3.38;100.00;101221.56;6132151;23;20365;-70
2023/01/10 06:09:15;;;;;;;3.30;3.20;;;;;;;2.88;100.00;101140.97;6088030;23;20022;-70
2023/01/10 06:11:42;;;;;;;7.22;3.95;;;;;;;2.64;100.00;101110.19;6086834;23;20451;-70
2023/01/10 06:14:10;;;;;;;3.05;2.95;;;;;;;3.55;100.00;101245.53;6120723;23;20662;-70
2023/01/10 06:16:37;;;;;;;3.53;3.33;;;;;;;3.00;100.00;101161.53;6089914;23;20226;-70
2023/01/10 06:19:03;;;;;;;3.47;3.28;;;;;;;2.98;100.00;101168.50;6113606;23;20030;-71
2023/01/10 06:21:30;;;;;;;3.63;3.42;;;;;;;3.50;100.00;101236.09;6091345;23;20026;-71
2023/01/10 06:23:57;;;;;;;3.80;3.60;;;;;;;3.12;100.00;101155.34;6093719;23;20228;-70
2023/01/10 06:26:23;;;;;;;3.63;3.50;;;;;;;3.65;100.00;101247.97;6127366;23;20011;-71
2023/01/10 06:28:49;;;;;;;5.13;3.88;;;;;;;3.08;100.00;101181.34;6108980;23;20022;-71
2023/01/10 06:31:16;;;;;;;5.18;4.95;;;;;;;2.96;100.00;101161.63;6126648;23;20020;-71
2023/01/10 06:33:42;;;;;;;3.40;3.30;;;;;;;3.81;100.00;101304.03;6114419;23;20037;-72
2023/01/10 06:36:10;;;;;;;3.30;3.20;;;;;;;3.55;100.00;101237.75;6100419;23;20416;-70
2023/01/10 06:38:36;;;;;;;3.67;3.47;;;;;;;3.90;100.00;101301.28;6117291;23;20013;-71
2023/01/10 06:41:11;;;;;;;3.08;2.97;;;;;;;3.92;100.00;101299.50;6093767;23;20021;-70
2023/01/10 06:43:39;;;;;;;4.47;4.00;;;;;;;3.96;100.00;101297.72;6116826;23;20134;-70
2023/01/10 06:46:08;;;;;;;4.10;3.90;;;;;;;3.87;100.00;101287.47;6090318;23;20033;-70
2023/01/10 06:48:36;;;;;;;3.55;3.45;;;;;;;3.16;100.00;101180.34;6118290;23;20021;-69
2023/01/10 06:51:04;;;;;;;4.38;3.97;;;;;;;3.95;100.00;101319.41;6128973;23;20293;-70
2023/01/10 06:53:31;;;;;;;3.38;3.28;;;;;;;3.96;100.00;101331.47;6127022;23;20017;-70
2023/01/10 06:55:57;;;;;;;7.20;3.17;;;;;;;3.88;100.00;101328.16;6122449;23;20226;-70
2023/01/10 06:58:24;;;;;;;4.85;4.28;;;;;;;3.76;100.00;101329.16;6120056;23;20024;-70
2023/01/10 07:00:50;;;;;;;9.43;4.43;;;;;;;3.48;100.00;101300.13;6121901;23;21069;-70
2023/01/10 07:03:17;;;;;;;6.03;4.30;;;;;;;3.06;100.00;101248.78;6118127;23;20029;-70
2023/01/10 07:05:43;;;;;;;3.45;3.30;;;;;;;3.49;100.00;101330.38;6062894;23;20237;-70
2023/01/10 07:08:10;;;;;;;3.58;3.38;;;;;;;3.22;100.00;101323.81;6121355;23;20500;-70
2023/01/10 07:10:39;;;;;;;3.45;3.25;;;;;;;3.34;100.00;101334.03;6113625;23;20046;-71
2023/01/10 07:13:06;;;;;;;3.30;3.20;;;;;;;3.34;100.00;101327.09;6131261;23;20054;-70
2023/01/10 07:15:33;;;;;;;4.03;3.83;;;;;;;2.86;100.00;101242.97;6110956;23;20101;-70
2023/01/10 07:17:59;;;;;;;3.72;3.53;;;;;;;2.79;100.00;101261.19;6132035;23;20013;-70
2023/01/10 07:20:28;;;;;;;3.40;3.28;;;;;;;3.23;100.00;101341.97;6116327;23;20084;-70
2023/01/10 07:22:58;;;;;;;3.33;3.13;;;;;;;3.18;100.00;101346.31;6134478;23;20086;-70
2023/01/10 07:25:26;;;;;;;3.85;3.65;;;;;;;3.17;100.00;101342.88;6114906;23;20036;-70
2023/01/10 07:27:56;;;;;;;4.20;3.85;;;;;;;1.76;100.00;101140.50;6120364;23;20016;-70
2023/01/10 07:30:24;;;;;;;3.88;3.67;;;;;;;2.94;100.00;101321.53;6108590;23;20084;-70
2023/01/10 07:32:55;;;;;;;4.22;4.03;;;;;;;2.96;100.00;101336.19;6122038;23;20373;-70
2023/01/10 07:35:23;;;;;;;3.75;3.55;;;;;;;2.94;100.00;101339.66;6115070;23;20480;-71
2023/01/10 07:37:50;;;;;;;3.65;3.45;;;;;;;2.92;100.00;101336.22;6093133;23;20554;-71
2023/01/10 07:40:17;;;;;;;3.75;3.53;;;;;;;2.65;100.00;101303.69;6112607;23;20189;-72
2023/01/10 07:42:43;;;;;;;3.22;3.03;;;;;;;2.61;100.00;101279.53;6090361;23;20029;-71
2023/01/10 07:45:12;;;;;;;5.63;3.67;;;;;;;2.94;100.00;101339.66;6111682;23;20353;-72
2023/01/10 07:47:39;;;;;;;4.10;3.88;;;;;;;2.82;100.00;101321.66;6116401;23;20111;-72
2023/01/10 07:50:06;;;;;;;3.38;3.25;;;;;;;3.01;100.00;101343.94;6110972;23;20092;-71
2023/01/10 07:52:32;;;;;;;3.22;3.10;;;;;;;2.96;100.00;101343.94;6108454;23;20338;-72
2023/01/10 07:55:01;;;;;;;3.05;2.95;;;;;;;2.43;100.00;101266.75;6084123;23;20053;-71
2023/01/10 07:57:28;;;;;;;3.83;3.45;;;;;;;2.94;100.00;101347.44;6113611;23;20483;-72
2023/01/10 07:59:54;;;;;;;4.65;4.00;;;;;;;2.99;100.00;101381.97;6109580;23;20215;-71
2023/01/10 08:02:24;;;;;;;3.78;3.58;;;;;;;2.59;100.00;101295.09;6116612;23;20049;-73
2023/01/10 08:04:55;;;;;;;3.05;2.92;;;;;;;2.85;100.00;101326.81;6124403;23;20309;-73
2023/01/10 08:07:23;;;;;;;3.03;2.92;;;;;;;2.99;100.00;101366.41;6086161;23;20033;-73
2023/01/10 08:09:50;;;;;;;3.72;3.42;;;;;;;2.57;100.00;101291.66;6118870;23;20269;-73
2023/01/10 08:12:20;;;;;;;3.38;3.28;;;;;;;3.14;100.00;101373.16;6113667;23;20197;-72
2023/01/10 08:14:46;;;;;;;4.25;3.85;;;;;;;3.17;100.00;101386.13;6083948;23;20034;-72
2023/01/10 08:17:13;;;;;;;3.45;3.35;;;;;;;3.19;100.00;101385.22;6111962;23;20100;-72
2023/01/10 08:19:40;;;;;;;3.42;3.33;;;;;;;3.19;100.00;101390.41;6083128;23;20068;-72
2023/01/10 08:22:06;;;;;;;3.28;3.17;;;;;;;2.98;100.00;101375.06;6111200;23;20030;-70
2023/01/10 08:24:35;;;;;;;3.05;2.95;;;;;;;2.61;100.00;101305.44;6058388;23;20043;-73
2023/01/10 08:27:02;;;;;;;3.55;3.40;;;;;;;3.22;100.00;101405.06;6085043;23;20244;-73
2023/01/10 08:29:28;;;;;;;3.17;3.08;;;;;;;2.98;100.00;101356.91;6097119;23;20409;-71
2023/01/10 08:31:55;;;;;;;4.47;4.07;;;;;;;3.33;100.00;101413.59;6117863;23;20031;-71
2023/01/10 08:34:23;;;;;;;3.30;3.20;;;;;;;3.18;100.00;101391.25;6089331;23;20467;-71
2023/01/10 08:36:51;;;;;;;4.22;3.83;;;;;;;3.20;100.00;101393.84;6112768;23;20022;-72
2023/01/10 08:39:21;;;;;;;3.65;3.45;;;;;;;3.06;100.00;101367.19;6114014;23;20033;-72
2023/01/10 08:41:48;;;;;;;4.07;3.88;;;;;;;3.09;100.00;101368.03;6114100;23;20292;-71
2023/01/10 08:44:16;;;;;;;7.78;4.65;;;;;;;2.95;100.00;101342.25;6121116;23;20038;-71
2023/01/10 08:46:42;;;;;;;3.20;3.10;;;;;;;3.49;100.00;101431.59;6114086;23;20175;-71
2023/01/10 08:49:09;;;;;;;3.50;3.30;;;;;;;3.54;100.00;101432.41;6088418;23;20083;-72
2023/01/10 08:51:36;;;;;;;4.07;3.70;;;;;;;3.59;100.00;101444.47;6120883;23;20033;-72
2023/01/10 08:54:03;;;;;;;3.67;3.53;;;;;;;3.63;100.00;101452.19;6094460;23;20347;-72
2023/01/10 08:56:29;;;;;;;3.85;3.33;;;;;;;3.66;100.00;101452.16;6066479;23;20072;-72
2023/01/10 08:58:56;;;;;;;6.45;3.42;;;;;;;3.70;100.00;101456.44;6111810;23;20009;-72
2023/01/10 09:01:22;;;;;;;7.30;3.25;;;;;;;3.47;100.00;101423.84;6120385;23;20311;-73
2023/01/10 09:03:49;;;;;;;4.57;4.28;;;;;;;3.52;100.00;101426.38;6092862;23;20440;-72
2023/01/10 09:06:15;;;;;;;3.95;3.65;;;;;;;3.83;100.00;101471.03;6115318;23;20021;-72
2023/01/10 09:08:42;;;;;;;3.05;2.95;;;;;;;3.89;100.00;101473.53;6122419;23;20037;-72
2023/01/10 09:11:08;;;;;;;4.45;3.80;;;;;;;3.95;100.00;101485.59;6118611;23;20087;-72
2023/01/10 09:13:35;;;;;;;4.47;4.20;;;;;;;3.91;100.00;101457.91;6106033;23;20025;-73
2023/01/10 09:16:01;;;;;;;4.13;3.83;;;;;;;3.93;100.00;101443.19;6089944;23;20026;-72
2023/01/10 09:18:28;;;;;;;5.85;3.22;;;;;;;4.18;100.00;101480.09;6118354;23;20432;-72
2023/01/10 09:20:54;;;;;;;4.40;4.20;;;;;;;4.28;100.00;101488.63;6087094;23;20120;-72
2023/01/10 09:23:22;;;;;;;3.63;3.42;;;;;;;4.42;100.00;101493.66;6087965;23;20021;-73
2023/01/10 09:25:51;;;;;;;4.30;3.78;;;;;;;4.49;100.00;101493.53;6123475;23;20032;-73
2023/01/10 09:28:19;;;;;;;3.78;3.60;;;;;;;3.38;100.00;101289.88;6093710;23;20028;-72
2023/01/10 09:30:46;;;;;;;3.42;3.33;;;;;;;4.85;100.00;101504.28;6088996;23;20631;-73
2023/01/10 09:33:14;;;;;;;12.23;3.55;;;;;;;5.03;100.00;101505.69;6129386;23;20020;-72
2023/01/10 09:35:41;;;;;;;3.78;3.63;;;;;;;5.15;100.00;101494.25;6107042;23;20036;-72
2023/01/10 09:38:15;;;;;;;4.60;3.22;;;;;;;5.36;100.00;101517.31;6119517;23;20977;-72
2023/01/10 09:41:03;;;;;;;5.78;3.97;;;;;;;5.51;100.00;101515.31;6112429;23;20034;-72
2023/01/10 09:44:05;;;;;;;10.63;4.65;;;;;;;5.47;100.00;101513.66;6118669;23;20280;-72
2023/01/10 09:46:51;;;;;;;3.80;3.60;;;;;;;5.72;100.00;101534.91;6114473;23;20040;-72
2023/01/10 09:49:35;;;;;;;7.05;3.45;;;;;;;5.22;100.00;101437.78;6128443;23;20094;-72
2023/01/10 09:52:07;;;;;;;6.20;3.65;;;;;;;5.79;100.00;101528.69;6092660;23;20093;-72
2023/01/10 09:54:40;;;;;;;3.53;3.33;;;;;;;5.82;100.00;101549.47;6134644;23;20178;-72
2023/01/10 09:57:12;;;;;;;;;;;;;;;5.90;100.00;101547.56;6084023;23;20190;-72
2023/01/10 09:59:40;;;;;;;3.70;3.58;;;;;;;5.49;100.00;101467.63;6123390;23;19901;-72
2023/01/10 10:02:19;;;;;;;4.20;3.95;;;;;;;5.98;100.00;101544.88;6090449;23;20166;-72
2023/01/10 10:05:12;;;;;;;4.40;3.95;;;;;;;5.70;100.00;101469.81;6117859;23;20048;-72
2023/01/10 10:07:41;;;;;;;6.63;4.95;;;;;;;5.59;100.00;101448.31;6093985;23;20017;-71
2023/01/10 10:10:35;;;;;;;11.65;4.57;;;;;;;6.20;100.00;101542.69;6109549;23;20509;-72
2023/01/10 10:13:23;;;;;;;;;;;;;;;6.26;100.00;101547.78;6111085;23;20162;-72
2023/01/10 10:16:05;;;;;;;11.27;4.38;;;;;;;6.38;100.00;101547.50;6081864;23;19993;-72
2023/01/10 10:18:55;;;;;;;5.55;3.65;;;;;;;5.90;100.00;101439.91;6119448;23;20173;-71
2023/01/10 10:21:36;;;;;;;15.55;4.35;;;;;;;6.49;100.00;101515.97;6084183;23;20030;-70
2023/01/10 10:24:06;;;;;;;9.65;4.15;;;;;;;6.75;100.00;101533.66;6111033;23;20178;-71
2023/01/10 10:26:52;;;;;;;4.18;3.97;;;;;;;6.90;100.00;101536.81;6090056;23;20030;-71
2023/01/10 10:29:41;;;;;;;4.85;3.90;;;;;;;6.88;100.00;101520.34;6112489;23;20088;-70
2023/01/10 10:32:08;;;;;;;4.10;3.70;;;;;;;7.07;99.25;101526.81;6087527;23;20038;-71
2023/01/10 10:34:37;;;;;;;7.18;4.32;;;;;;;7.11;97.80;101525.00;6092144;23;20690;-70
2023/01/10 10:37:18;;;;;;;12.50;4.47;;;;;;;7.19;96.22;101515.22;6084221;23;20049;-71
2023/01/10 10:39:59;;;;;;;9.93;4.97;;;;;;;7.20;94.25;101506.50;6115136;23;20021;-70
2023/01/10 10:42:37;;;;;;;5.03;4.50;;;;;;;6.87;93.88;101450.78;6087403;23;20225;-70
2023/01/10 10:45:06;;;;;;;4.75;4.35;;;;;;;7.41;92.80;101505.09;6113252;23;20028;-71
2023/01/10 10:47:35;;;;;;;4.18;3.88;;;;;;;7.59;91.49;101509.81;6121682;23;20045;-71
2023/01/10 10:50:10;;;;;;;5.40;4.55;;;;;;;7.61;89.99;101493.25;6087774;23;20014;-71
2023/01/10 10:52:37;;;;;;;3.63;3.53;;;;;;;7.67;89.95;101483.50;6091229;23;20066;-70
2023/01/10 10:55:11;;;;;;;4.82;4.43;;;;;;;7.75;89.37;101484.13;6085878;23;20009;-71
2023/01/10 10:57:39;;;;;;;8.32;5.18;;;;;;;7.40;88.38;101406.78;6121433;23;20638;-71
2023/01/10 11:00:22;;;;;;;14.27;4.45;;;;;;;7.44;87.04;101381.41;6123185;23;20029;-71
2023/01/10 11:02:53;;;;;;;9.00;4.43;;;;;;;7.84;86.40;101430.78;6114726;23;20061;-71
2023/01/10 11:05:28;;;;;;;12.13;4.82;;;;;;;7.89;86.56;101435.88;6102792;23;20249;-71
2023/01/10 11:08:02;;;;;;;11.48;5.13;;;;;;;7.98;86.80;101430.38;6094379;23;20037;-70
2023/01/10 11:10:35;;;;;;;4.65;4.20;;;;;;;7.96;86.10;101422.56;6113779;23;20207;-72
2023/01/10 11:13:13;;;;;;;20.42;4.93;;;;;;;7.69;86.06;101361.53;6119633;23;20021;-71
2023/01/10 11:15:43;;;;;;;11.10;5.55;;;;;;;8.06;85.60;101406.59;6084733;23;20084;-71
2023/01/10 11:18:13;;;;;;;4.50;4.10;;;;;;;7.81;84.92;101381.22;6119320;23;20084;-71
2023/01/10 11:20:56;;;;;;;4.25;4.00;;;;;;;7.96;85.00;101395.59;6098717;23;20342;-72
2023/01/10 11:23:40;;;;;;;5.63;4.03;;;;;;;7.56;84.29;101321.84;6112230;23;20017;-72
2023/01/10 11:26:22;;;;;;;7.32;4.82;;;;;;;7.59;84.32;101334.81;6113395;23;20087;-72
2023/01/10 11:28:52;;;;;;;5.00;4.65;;;;;;;7.67;85.03;101326.75;6083510;23;20022;-71
2023/01/10 11:31:27;;;;;;;4.80;4.40;;;;;;;7.46;84.07;101289.09;6093550;23;20336;-71
2023/01/10 11:33:55;;;;;;;4.88;4.47;;;;;;;8.12;84.56;101378.53;6084715;23;20017;-71
2023/01/10 11:36:21;;;;;;;6.20;5.65;;;;;;;7.76;84.66;101294.28;6115653;23;20120;-71
2023/01/10 11:39:00;;;;;;;7.22;4.15;;;;;;;8.29;84.88;101379.75;6114309;23;20055;-71
2023/01/10 11:41:32;;;;;;;4.70;4.40;;;;;;;8.31;84.66;101372.72;6113305;23;20080;-71
2023/01/10 11:44:15;;;;;;;;;;;;;;;8.30;84.53;101373.59;6120646;23;20033;-71
2023/01/10 11:46:44;;;;;;;5.68;5.00;;;;;;;8.08;84.47;101324.63;6111588;23;19943;-71
2023/01/10 11:49:18;;;;;;;4.65;4.25;;;;;;;8.47;83.66;101375.72;6089823;23;20610;-71
2023/01/10 11:51:51;;;;;;;10.48;4.65;;;;;;;8.12;83.49;101292.25;6117073;23;20045;-71
2023/01/10 11:54:26;;;;;;;15.95;4.78;;;;;;;8.59;82.59;101355.25;6082308;23;20040;-71